createdAt,value
2022-10-17T00:01:23.708Z,100957.78
2022-10-17T00:03:52.050Z,100949.44
2022-10-17T00:06:20.420Z,100956.16
2022-10-17T00:08:48.800Z,100956.16
2022-10-17T00:11:19.740Z,100952.91
2022-10-17T00:13:49.019Z,100960.88
2022-10-17T00:16:26.252Z,100948.22
2022-10-17T00:18:54.990Z,100955.81
2022-10-17T00:21:24.279Z,100953.03
2022-10-17T00:23:52.821Z,100958.63
2022-10-17T00:26:21.784Z,100949.84
2022-10-17T00:28:51.209Z,100949.84
2022-10-17T00:31:24.741Z,100942.72
2022-10-17T00:33:53.544Z,100933.97
2022-10-17T00:36:23.678Z,100938.34
2022-10-17T00:38:54.996Z,100928.81
2022-10-17T00:41:26.224Z,100925.25
2022-10-17T00:43:57.627Z,100920.09
2022-10-17T00:46:29.720Z,100920.06
2022-10-17T00:49:00.495Z,100919.66
2022-10-17T00:51:35.431Z,100919.25
2022-10-17T00:54:05.130Z,100903.34
2022-10-17T00:56:34.144Z,100909.31
2022-10-17T00:59:02.689Z,100902.53
2022-10-17T01:01:33.076Z,100897.38
2022-10-17T01:04:01.809Z,100899.75
2022-10-17T01:06:29.986Z,100888.59
2022-10-17T01:09:00.999Z,100890.19
2022-10-17T01:11:40.174Z,100884.59
2022-10-17T01:14:17.752Z,100896.53
2022-10-17T01:16:59.563Z,100898.50
2022-10-17T01:19:45.520Z,100893.34
2022-10-17T01:22:20.327Z,100890.13
2022-10-17T01:25:05.469Z,100890.94
2022-10-17T01:27:53.944Z,100889.28
2022-10-17T01:30:52.019Z,100888.50
2022-10-17T01:33:32.418Z,100888.47
2022-10-17T01:36:06.403Z,100892.44
2022-10-17T01:38:38.184Z,100893.25
2022-10-17T01:41:11.383Z,100882.47
2022-10-17T01:43:42.953Z,100878.09
2022-10-17T01:46:18.282Z,100885.25
2022-10-17T01:48:48.479Z,100884.81
2022-10-17T01:51:20.749Z,100882.81
2022-10-17T01:53:54.414Z,100876.41
2022-10-17T01:56:26.526Z,100868.41
2022-10-17T01:58:58.687Z,100870.03
2022-10-17T02:01:32.425Z,100867.19
2022-10-17T02:04:05.044Z,100866.41
2022-10-17T02:06:36.437Z,100864.41
2022-10-17T02:09:18.505Z,100858.84
2022-10-17T02:11:53.900Z,100858.06
2022-10-17T02:14:34.301Z,100870.00
2022-10-17T02:17:14.269Z,100864.00
2022-10-17T02:19:56.766Z,100859.28
2022-10-17T02:22:36.912Z,100856.09
2022-10-17T02:25:13.894Z,100860.50
2022-10-17T02:27:49.377Z,100855.31
2022-10-17T02:30:28.612Z,100851.72
2022-10-17T02:33:01.445Z,100858.53
2022-10-17T02:35:36.343Z,100855.28
2022-10-17T02:38:06.797Z,100858.91
2022-10-17T02:40:36.135Z,100850.53
2022-10-17T02:43:04.490Z,100856.50
2022-10-17T02:45:35.519Z,100847.34
2022-10-17T02:48:07.284Z,100844.53
2022-10-17T02:50:48.729Z,100853.31
2022-10-17T02:53:26.572Z,100857.34
2022-10-17T02:56:01.257Z,100852.50
2022-10-17T02:58:34.282Z,100840.94
2022-10-17T03:01:02.803Z,100849.31
2022-10-17T03:03:33.206Z,100848.53
2022-10-17T03:06:03.568Z,100844.53
2022-10-17T03:08:31.868Z,100851.31
2022-10-17T03:11:00.128Z,100846.91
2022-10-17T03:13:28.366Z,100844.50
2022-10-17T03:15:58.301Z,100847.69
2022-10-17T03:18:26.831Z,100848.50
2022-10-17T03:20:55.040Z,100856.47
2022-10-17T03:23:25.163Z,100858.03
2022-10-17T03:25:53.383Z,100855.63
2022-10-17T03:28:24.395Z,100851.69
2022-10-17T03:30:52.616Z,100855.63
2022-10-17T03:33:20.833Z,100854.91
2022-10-17T03:38:18.209Z,100856.06
2022-10-17T03:40:56.543Z,100854.03
2022-10-17T03:43:24.904Z,100849.69
2022-10-17T03:45:53.103Z,100858.47
2022-10-17T03:48:21.424Z,100860.84
2022-10-17T03:50:49.698Z,100858.84
2022-10-17T03:53:17.974Z,100863.63
2022-10-17T03:55:48.232Z,100861.28
2022-10-17T03:58:16.414Z,100876.44
2022-10-17T04:00:44.638Z,100868.09
2022-10-17T04:03:17.212Z,100873.63
2022-10-17T04:05:45.663Z,100870.06
2022-10-17T04:08:13.927Z,100861.31
2022-10-17T04:10:42.377Z,100862.53
2022-10-17T04:13:12.508Z,100868.06
2022-10-17T04:15:40.767Z,100866.09
2022-10-17T04:18:08.967Z,100867.31
2022-10-17T04:20:37.301Z,100875.69
2022-10-17T04:23:05.507Z,100861.75
2022-10-17T04:25:36.082Z,100864.94
2022-10-17T04:28:05.283Z,100867.75
2022-10-17T04:30:35.745Z,100863.00
2022-10-17T04:33:04.007Z,100869.34
2022-10-17T04:35:32.285Z,100867.34
2022-10-17T04:38:00.561Z,100877.34
2022-10-17T04:40:28.868Z,100878.94
2022-10-17T04:42:57.134Z,100880.13
2022-10-17T04:45:25.410Z,100883.72
2022-10-17T04:47:55.549Z,100878.97
2022-10-17T04:50:23.808Z,100883.75
2022-10-17T04:52:51.999Z,100879.75
2022-10-17T04:55:20.204Z,100886.13
2022-10-17T04:57:48.429Z,100883.34
2022-10-17T05:00:17.137Z,100884.94
2022-10-17T05:02:45.324Z,100884.97
2022-10-17T05:05:15.705Z,100882.16
2022-10-17T05:07:44.043Z,100870.25
2022-10-17T05:10:12.239Z,100879.00
2022-10-17T05:12:40.438Z,100883.38
2022-10-17T05:15:10.305Z,100878.59
2022-10-17T05:17:38.581Z,100884.59
2022-10-17T05:20:08.375Z,100879.41
2022-10-17T05:22:41.248Z,100885.34
2022-10-17T05:25:10.731Z,100894.13
2022-10-17T05:27:39.335Z,100891.34
2022-10-17T05:30:09.569Z,100895.34
2022-10-17T05:32:37.863Z,100882.59
2022-10-17T05:35:07.436Z,100896.13
2022-10-17T05:37:35.727Z,100898.91
2022-10-17T05:40:06.628Z,100898.53
2022-10-17T05:42:34.994Z,100896.53
2022-10-17T05:45:05.238Z,100898.16
2022-10-17T05:47:33.576Z,100897.38
2022-10-17T05:50:01.819Z,100899.75
2022-10-17T05:52:30.405Z,100892.56
2022-10-17T05:54:58.857Z,100903.69
2022-10-17T05:57:29.050Z,100905.72
2022-10-17T05:59:57.246Z,100906.88
2022-10-17T06:02:25.620Z,100908.91
2022-10-17T06:04:54.220Z,100915.66
2022-10-17T06:07:22.528Z,100923.63
2022-10-17T06:09:50.920Z,100917.25
2022-10-17T06:12:19.185Z,100916.84
2022-10-17T06:14:49.331Z,100920.44
2022-10-17T06:17:18.034Z,100920.41
2022-10-17T06:19:46.258Z,100919.22
2022-10-17T06:22:14.769Z,100923.63
2022-10-17T06:24:43.084Z,100914.06
2022-10-17T06:27:12.272Z,100920.00
2022-10-17T06:29:40.704Z,100914.81
2022-10-17T06:32:14.175Z,100924.38
2022-10-17T06:34:43.570Z,100921.97
2022-10-17T06:37:11.888Z,100923.53
2022-10-17T06:39:40.388Z,100928.69
2022-10-17T06:42:08.746Z,100910.81
2022-10-17T06:44:37.108Z,100929.94
2022-10-17T06:47:05.395Z,100935.06
2022-10-17T06:49:35.658Z,100937.03
2022-10-17T06:52:04.059Z,100933.00
2022-10-17T06:54:32.471Z,100925.78
2022-10-17T06:57:00.743Z,100922.59
2022-10-17T06:59:29.068Z,100935.69
2022-10-17T07:01:57.309Z,100941.22
2022-10-17T07:04:25.583Z,100935.59
2022-10-17T07:06:55.886Z,100940.72
2022-10-17T07:09:24.447Z,100935.09
2022-10-17T07:11:52.620Z,100943.38
2022-10-17T07:14:20.997Z,100940.53
2022-10-17T07:16:50.202Z,100940.34
2022-10-17T07:19:18.438Z,100929.66
2022-10-17T07:21:47.168Z,100934.84
2022-10-17T07:24:17.912Z,100921.63
2022-10-17T07:26:46.135Z,100921.56
2022-10-17T07:29:14.408Z,100928.78
2022-10-17T07:31:44.878Z,100923.38
2022-10-17T07:34:13.136Z,100927.09
2022-10-17T07:36:41.471Z,100917.31
2022-10-17T07:39:09.753Z,100927.44
2022-10-17T07:41:39.904Z,100931.13
2022-10-17T07:44:08.125Z,100932.03
2022-10-17T07:46:37.126Z,100942.63
2022-10-17T07:49:05.294Z,100941.31
2022-10-17T07:51:33.584Z,100948.97
2022-10-17T07:54:01.897Z,100939.59
2022-10-17T07:56:30.121Z,100934.94
2022-10-17T07:59:02.753Z,100937.91
2022-10-17T08:01:33.510Z,100932.81
2022-10-17T08:04:02.124Z,100932.84
2022-10-17T08:06:30.452Z,100922.28
2022-10-17T08:09:01.014Z,100932.16
2022-10-17T08:11:29.651Z,100936.44
2022-10-17T08:13:59.934Z,100934.09
2022-10-17T08:16:28.272Z,100929.47
2022-10-17T08:18:56.609Z,100935.91
2022-10-17T08:21:24.927Z,100931.47
2022-10-17T08:23:53.221Z,100938.72
2022-10-17T08:26:22.011Z,100934.63
2022-10-17T08:28:51.254Z,100930.38
2022-10-17T08:31:22.725Z,100945.09
2022-10-17T08:33:51.977Z,100930.63
2022-10-17T08:36:21.903Z,100947.03
2022-10-17T08:38:53.473Z,100936.06
2022-10-17T08:41:39.184Z,100940.31
2022-10-17T08:44:17.329Z,100944.59
2022-10-17T08:46:51.805Z,100947.38
2022-10-17T08:49:29.585Z,100935.41
2022-10-17T08:52:06.379Z,100937.56
2022-10-17T08:54:42.812Z,100926.56
2022-10-17T08:57:14.906Z,100925.03
2022-10-17T08:59:44.431Z,100921.25
2022-10-17T09:02:29.967Z,100921.00
2022-10-17T09:05:16.108Z,100918.09
2022-10-17T09:07:49.728Z,100918.72
2022-10-17T09:10:32.704Z,100916.09
2022-10-17T09:13:11.515Z,100917.44
2022-10-17T09:15:50.705Z,100919.00
2022-10-17T09:18:28.815Z,100919.13
2022-10-17T09:21:02.002Z,100913.78
2022-10-17T09:23:40.435Z,100910.72
2022-10-17T09:26:13.053Z,100916.84
2022-10-17T09:28:42.953Z,100917.66
2022-10-17T09:31:18.359Z,100916.13
2022-10-17T09:33:54.185Z,100909.88
2022-10-17T09:36:27.489Z,100913.81
2022-10-17T09:38:57.946Z,100915.16
2022-10-17T09:41:45.559Z,100912.84
2022-10-17T09:44:21.060Z,100908.06
2022-10-17T09:47:08.277Z,100908.44
2022-10-17T09:49:40.524Z,100908.19
2022-10-17T09:52:16.510Z,100918.03
2022-10-17T09:54:47.638Z,100910.75
2022-10-17T09:57:18.156Z,100922.63
2022-10-17T09:59:49.393Z,100910.31
2022-10-17T10:02:23.368Z,100921.28
2022-10-17T10:05:06.851Z,100924.31
2022-10-17T10:07:37.802Z,100930.63
2022-10-17T10:10:09.911Z,100921.44
2022-10-17T10:12:40.201Z,100927.34
2022-10-17T10:15:37.212Z,100929.75
2022-10-17T10:18:24.422Z,100936.06
2022-10-17T10:21:09.836Z,100936.31
2022-10-17T10:23:40.719Z,100936.31
2022-10-17T10:26:21.848Z,100950.41
2022-10-17T10:29:02.570Z,100951.94
2022-10-17T10:31:34.900Z,100940.19
2022-10-17T10:34:12.682Z,100950.75
2022-10-17T10:36:50.475Z,100960.69
2022-10-17T10:39:32.726Z,100963.00
2022-10-17T10:42:02.453Z,100955.19
2022-10-17T10:44:32.896Z,100972.56
2022-10-17T10:47:21.449Z,100959.13
2022-10-17T10:49:51.938Z,100956.03
2022-10-17T10:52:35.322Z,100970.22
2022-10-17T10:55:17.448Z,100965.22
2022-10-17T10:57:48.637Z,100959.13
2022-10-17T11:00:20.163Z,100977.88
2022-10-17T11:02:56.324Z,100960.78
2022-10-17T11:05:42.421Z,100949.31
2022-10-17T11:08:21.871Z,100958.91
2022-10-17T11:11:17.562Z,100959.03
2022-10-17T11:13:53.386Z,100958.44
2022-10-17T11:16:30.248Z,100962.53
2022-10-17T11:19:04.236Z,100962.09
2022-10-17T11:21:43.102Z,100965.50
2022-10-17T11:24:22.751Z,100963.59
2022-10-17T11:26:57.620Z,100969.47
2022-10-17T11:29:30.548Z,100966.84
2022-10-17T11:32:02.772Z,100960.50
2022-10-17T11:34:34.484Z,100976.34
2022-10-17T11:37:16.357Z,100963.31
2022-10-17T11:39:53.155Z,100968.59
2022-10-17T11:42:24.110Z,100967.25
2022-10-17T11:44:57.493Z,100977.28
2022-10-17T11:47:36.154Z,100971.00
2022-10-17T11:53:07.760Z,100955.22
2022-10-17T11:55:39.446Z,100970.66
2022-10-17T11:58:23.979Z,100956.53
2022-10-17T12:01:00.027Z,100950.75
2022-10-17T12:03:46.387Z,100946.59
2022-10-17T12:06:28.466Z,100948.53
2022-10-17T12:09:04.304Z,100952.44
2022-10-17T12:11:50.153Z,100959.38
2022-10-17T12:14:42.778Z,100946.38
2022-10-17T12:17:29.811Z,100943.22
2022-10-17T12:20:26.759Z,100927.84
2022-10-17T12:22:56.952Z,100927.44
2022-10-17T12:25:29.224Z,100932.03
2022-10-17T12:28:27.572Z,100928.75
2022-10-17T12:30:58.449Z,100921.75
2022-10-17T12:33:38.919Z,100926.91
2022-10-17T12:36:45.682Z,100937.69
2022-10-17T12:39:46.345Z,100938.34
2022-10-17T12:42:48.026Z,100937.53
2022-10-17T12:45:52.809Z,100938.50
2022-10-17T12:48:51.085Z,100938.50
2022-10-17T12:51:35.227Z,100952.13
2022-10-17T12:54:13.472Z,100942.94
2022-10-17T12:56:44.309Z,100961.94
2022-10-17T12:59:18.115Z,100932.97
2022-10-17T13:01:50.850Z,100942.53
2022-10-17T13:04:20.203Z,100936.88
2022-10-17T13:06:52.732Z,100947.63
2022-10-17T13:09:29.918Z,100929.94
2022-10-17T13:12:01.170Z,100936.66
2022-10-17T13:14:30.590Z,100941.47
2022-10-17T13:17:02.923Z,100947.97
2022-10-17T13:19:40.737Z,100945.47
2022-10-17T13:22:21.355Z,100950.94
2022-10-17T13:24:51.225Z,100956.97
2022-10-17T13:27:30.328Z,100952.06
2022-10-17T13:30:01.549Z,100964.78
2022-10-17T13:32:40.141Z,100965.53
2022-10-17T13:35:11.717Z,100967.25
2022-10-17T13:37:42.896Z,100960.50
2022-10-17T13:40:44.020Z,100966.41
2022-10-17T13:43:16.788Z,100969.69
2022-10-17T13:45:49.506Z,100968.78
2022-10-17T13:48:25.041Z,100980.69
2022-10-17T13:50:59.129Z,100971.88
2022-10-17T13:53:33.131Z,100973.47
2022-10-17T13:56:23.193Z,100964.06
2022-10-17T13:58:55.560Z,100968.91
2022-10-17T14:01:25.224Z,100972.06
2022-10-17T14:04:07.733Z,100977.72
2022-10-17T14:06:46.398Z,100985.16
2022-10-17T14:09:23.924Z,100983.47
2022-10-17T14:12:01.988Z,100996.03
2022-10-17T14:14:46.109Z,100996.59
2022-10-17T14:17:25.368Z,100984.06
2022-10-17T14:20:16.067Z,100984.06
2022-10-17T14:22:50.606Z,100971.88
2022-10-17T14:25:32.223Z,100969.56
2022-10-17T14:28:07.592Z,100974.28
2022-10-17T14:30:55.826Z,100987.84
2022-10-17T14:33:27.612Z,100985.34
2022-10-17T14:35:59.734Z,100993.47
2022-10-17T14:38:29.296Z,100998.69
2022-10-17T14:41:23.584Z,101007.72
2022-10-17T14:43:55.517Z,101002.59
2022-10-17T14:46:23.870Z,101007.69
2022-10-17T14:48:58.787Z,101017.28
2022-10-17T14:51:32.547Z,101022.53
2022-10-17T14:54:21.214Z,101028.56
2022-10-17T14:56:51.822Z,101024.22
2022-10-17T14:59:51.490Z,101023.56
2022-10-17T15:02:11.740Z,101026.97
2022-10-17T15:04:40.027Z,101026.53
2022-10-17T15:07:14.471Z,101026.16
2022-10-17T15:09:42.937Z,101025.56
2022-10-17T15:12:16.193Z,101026.97
2022-10-17T15:14:44.808Z,101026.31
2022-10-17T15:17:20.052Z,101037.63
2022-10-17T15:19:48.446Z,101029.84
2022-10-17T15:22:18.571Z,101033.03
2022-10-17T15:24:47.278Z,101040.97
2022-10-17T15:27:17.215Z,101039.03
2022-10-17T15:29:46.286Z,101051.13
2022-10-17T15:32:14.617Z,101046.03
2022-10-17T15:34:42.921Z,101049.00
2022-10-17T15:37:21.954Z,101045.94
2022-10-17T15:39:53.846Z,101050.44
2022-10-17T15:42:23.400Z,101052.59
2022-10-17T15:44:51.704Z,101055.97
2022-10-17T15:47:26.729Z,101062.75
2022-10-17T15:49:55.597Z,101067.84
2022-10-17T15:52:26.307Z,101061.03
2022-10-17T15:54:57.330Z,101069.06
2022-10-17T15:57:31.060Z,101074.91
2022-10-17T16:00:00.833Z,101077.25
2022-10-17T16:02:29.436Z,101078.47
2022-10-17T16:04:57.655Z,101091.09
2022-10-17T16:07:28.100Z,101082.38
2022-10-17T16:09:56.574Z,101084.22
2022-10-17T16:12:30.513Z,101089.41
2022-10-17T16:14:58.761Z,101094.72
2022-10-17T16:17:27.129Z,101092.69
2022-10-17T16:19:55.445Z,101098.88
2022-10-17T16:22:31.638Z,101098.41
2022-10-17T16:25:07.184Z,101103.78
2022-10-17T16:27:35.457Z,101101.69
2022-10-17T16:30:04.028Z,101104.81
2022-10-17T16:32:32.725Z,101107.53
2022-10-17T16:35:01.205Z,101109.66
2022-10-17T16:37:31.355Z,101115.03
2022-10-17T16:40:00.147Z,101119.34
2022-10-17T16:42:28.682Z,101124.66
2022-10-17T16:44:57.237Z,101125.50
2022-10-17T16:47:27.773Z,101126.41
2022-10-17T16:49:56.577Z,101136.53
2022-10-17T16:52:24.885Z,101130.09
2022-10-17T16:54:54.994Z,101137.78
2022-10-17T16:57:23.159Z,101131.78
2022-10-17T16:59:51.539Z,101143.59
2022-10-17T17:02:21.354Z,101146.97
2022-10-17T17:04:49.867Z,101157.34
2022-10-17T17:07:19.307Z,101154.63
2022-10-17T17:09:48.323Z,101154.19
2022-10-17T17:12:18.453Z,101153.81
2022-10-17T17:14:46.664Z,101155.84
2022-10-17T17:17:24.448Z,101153.81
2022-10-17T17:20:03.127Z,101153.22
2022-10-17T17:22:31.363Z,101156.47
2022-10-17T17:24:59.564Z,101159.81
2022-10-17T17:27:31.134Z,101160.81
2022-10-17T17:29:59.567Z,101166.09
2022-10-17T17:32:27.731Z,101169.13
2022-10-17T17:34:55.967Z,101169.94
2022-10-17T17:37:24.221Z,101178.81
2022-10-17T17:39:52.446Z,101178.09
2022-10-17T17:42:21.060Z,101181.44
2022-10-17T17:44:51.969Z,101178.38
2022-10-17T17:47:20.507Z,101188.91
2022-10-17T17:49:48.770Z,101191.72
2022-10-17T17:52:17.086Z,101181.06
2022-10-17T17:54:46.059Z,101197.03
2022-10-17T17:57:14.387Z,101199.94
2022-10-17T17:59:42.664Z,101195.16
2022-10-17T18:02:13.342Z,101204.41
2022-10-17T18:04:41.569Z,101207.13
2022-10-17T18:07:09.763Z,101206.69
2022-10-17T18:09:37.980Z,101207.59
2022-10-17T18:12:07.226Z,101198.34
2022-10-17T18:14:35.495Z,101202.19
2022-10-17T18:17:03.971Z,101204.91
2022-10-17T18:19:34.322Z,101205.44
2022-10-17T18:22:02.606Z,101214.84
2022-10-17T18:24:30.848Z,101211.94
2022-10-17T18:26:59.391Z,101204.81
2022-10-17T18:29:28.820Z,101212.16
2022-10-17T18:31:57.194Z,101232.38
2022-10-17T18:34:26.638Z,101228.94
2022-10-17T18:36:58.228Z,101234.59
2022-10-17T18:39:26.425Z,101239.53
2022-10-17T18:41:54.665Z,101246.91
2022-10-17T18:44:23.054Z,101245.06
2022-10-17T18:46:51.541Z,101243.59
2022-10-17T18:49:22.552Z,101247.13
2022-10-17T18:51:50.926Z,101250.69
2022-10-17T18:54:24.011Z,101253.25
2022-10-17T18:56:55.710Z,101256.50
2022-10-17T18:59:23.978Z,101261.69
2022-10-17T19:01:52.369Z,101261.03
2022-10-17T19:04:20.600Z,101257.91
2022-10-17T19:06:48.891Z,101256.97
2022-10-17T19:09:17.570Z,101264.09
2022-10-17T19:11:47.794Z,101265.47
2022-10-17T19:14:16.219Z,101260.25
2022-10-17T19:16:46.555Z,101256.34
2022-10-17T19:19:18.678Z,101262.59
2022-10-17T19:21:47.365Z,101262.22
2022-10-17T19:24:17.437Z,101261.91
2022-10-17T19:26:49.728Z,101264.44
2022-10-17T19:29:19.376Z,101246.34
2022-10-17T19:31:49.010Z,101257.28
2022-10-17T19:39:17.273Z,101272.59
2022-10-17T19:41:48.953Z,101273.03
2022-10-17T19:44:18.035Z,101271.56
2022-10-17T19:46:48.470Z,101277.28
2022-10-17T19:49:18.994Z,101283.69
2022-10-17T19:51:47.915Z,101282.16
2022-10-17T19:54:18.081Z,101283.72
2022-10-17T19:56:48.652Z,101282.25
2022-10-17T19:59:18.110Z,101277.44
2022-10-17T20:01:47.336Z,101283.38
2022-10-17T20:04:15.683Z,101276.63
2022-10-17T20:06:44.202Z,101273.03
2022-10-17T20:09:16.682Z,101278.28
2022-10-17T20:11:46.018Z,101285.25
2022-10-17T20:14:16.256Z,101289.75
2022-10-17T20:16:49.616Z,101296.09
2022-10-17T20:19:17.902Z,101301.72
2022-10-17T20:21:46.247Z,101308.13
2022-10-17T20:24:17.173Z,101311.03
2022-10-17T20:26:46.370Z,101323.16
2022-10-17T20:29:20.834Z,101336.66
2022-10-17T20:31:49.953Z,101347.06
2022-10-17T20:34:20.162Z,101342.25
2022-10-17T20:36:49.612Z,101349.53
2022-10-17T20:39:20.671Z,101361.59
2022-10-17T20:41:49.098Z,101365.25
2022-10-17T20:44:19.484Z,101365.69
2022-10-17T20:47:01.130Z,101370.97
2022-10-17T20:49:30.720Z,101379.81
2022-10-17T20:51:59.023Z,101380.63
2022-10-17T20:54:27.858Z,101386.66
2022-10-17T20:56:58.729Z,101386.25
2022-10-17T20:59:31.676Z,101387.00
2022-10-17T21:02:00.146Z,101387.41
2022-10-17T21:04:47.039Z,101394.97
2022-10-17T21:07:15.985Z,101399.81
2022-10-17T21:09:45.707Z,101403.03
2022-10-17T21:12:21.633Z,101409.50
2022-10-17T21:15:01.742Z,101409.09
2022-10-17T21:17:30.115Z,101406.75
2022-10-17T21:19:58.447Z,101413.63
2022-10-17T21:22:27.021Z,101409.25
2022-10-17T21:24:55.483Z,101409.47
2022-10-17T21:27:23.808Z,101413.97
2022-10-17T21:29:52.182Z,101413.66
2022-10-17T21:32:33.509Z,101421.72
2022-10-17T21:35:10.938Z,101417.44
2022-10-17T21:37:39.349Z,101425.88
2022-10-17T21:40:09.628Z,101427.91
2022-10-17T21:42:37.876Z,101441.22
2022-10-17T21:45:15.183Z,101442.41
2022-10-17T21:48:07.869Z,101438.06
2022-10-17T21:50:34.096Z,101450.09
2022-10-17T21:53:02.472Z,101457.69
2022-10-17T21:55:30.730Z,101446.50
2022-10-17T21:57:59.037Z,101448.88
2022-10-17T22:00:27.344Z,101456.50
2022-10-17T22:02:57.648Z,101453.31
2022-10-17T22:05:26.031Z,101454.88
2022-10-17T22:07:54.328Z,101460.88
2022-10-17T22:10:22.656Z,101460.09
2022-10-17T22:12:50.962Z,101458.50
2022-10-17T22:15:22.185Z,101466.50
2022-10-17T22:17:50.504Z,101471.72
2022-10-17T22:20:20.704Z,101468.53
2022-10-17T22:22:49.465Z,101475.75
2022-10-17T22:25:17.829Z,101476.16
2022-10-17T22:27:46.165Z,101471.75
2022-10-17T22:30:14.616Z,101461.34
2022-10-17T22:32:43.074Z,101467.78
2022-10-17T22:35:11.483Z,101466.16
2022-10-17T22:37:41.978Z,101461.75
2022-10-17T22:40:10.980Z,101470.56
2022-10-17T22:42:39.254Z,101459.78
2022-10-17T22:45:08.243Z,101454.59
2022-10-17T22:47:36.491Z,101451.78
2022-10-17T22:50:05.020Z,101452.56
2022-10-17T22:52:33.619Z,101445.38
2022-10-17T22:55:03.963Z,101449.75
2022-10-17T22:57:32.296Z,101445.81
2022-10-17T23:00:00.635Z,101445.78
2022-10-17T23:02:29.228Z,101443.78
2022-10-17T23:04:57.787Z,101442.56
2022-10-17T23:07:26.549Z,101449.41
2022-10-17T23:09:55.410Z,101454.97
2022-10-17T23:12:25.737Z,101454.59
2022-10-17T23:14:53.986Z,101464.59
2022-10-17T23:17:22.193Z,101469.81
2022-10-17T23:19:52.942Z,101461.78
2022-10-17T23:22:23.761Z,101463.00
2022-10-17T23:24:52.050Z,101466.19
2022-10-17T23:27:20.400Z,101473.78
2022-10-17T23:29:50.576Z,101477.78
2022-10-17T23:32:20.780Z,101476.19
2022-10-17T23:34:48.994Z,101480.97
2022-10-17T23:37:17.379Z,101481.00
2022-10-17T23:39:45.596Z,101477.78
2022-10-17T23:42:13.872Z,101477.03
2022-10-17T23:44:42.208Z,101481.38
2022-10-17T23:47:12.285Z,101484.19
2022-10-17T23:49:40.487Z,101480.97
2022-10-17T23:52:08.773Z,101476.97
2022-10-17T23:54:37.033Z,101477.00
2022-10-17T23:57:05.406Z,101485.38
2022-10-17T23:59:33.784Z,101478.59
